createdAt,value
2022-09-15T00:00:54.797Z,17.36
2022-09-15T00:03:23.792Z,17.32
2022-09-15T00:05:53.566Z,17.27
2022-09-15T00:08:21.334Z,17.23
2022-09-15T00:10:52.451Z,17.16
2022-09-15T00:13:20.879Z,17.13
2022-09-15T00:15:48.750Z,17.11
2022-09-15T00:18:16.501Z,17.10
2022-09-15T00:20:45.965Z,17.05
2022-09-15T00:23:15.777Z,17.03
2022-09-15T00:25:45.714Z,16.97
2022-09-15T00:28:16.048Z,16.94
2022-09-15T00:30:45.001Z,16.89
2022-09-15T00:33:13.713Z,16.91
2022-09-15T00:35:44.350Z,16.89
2022-09-15T00:38:37.314Z,16.87
2022-09-15T00:41:06.598Z,16.85
2022-09-15T00:43:47.933Z,16.86
2022-09-15T00:46:18.250Z,16.86
2022-09-15T00:48:52.110Z,16.86
2022-09-15T00:51:24.108Z,16.85
2022-09-15T00:53:52.873Z,16.83
2022-09-15T00:56:22.296Z,16.81
2022-09-15T00:58:55.112Z,16.77
2022-09-15T01:01:26.724Z,16.77
2022-09-15T01:03:55.241Z,16.75
2022-09-15T01:06:28.695Z,16.69
2022-09-15T01:09:03.283Z,16.74
2022-09-15T01:11:31.680Z,16.76
2022-09-15T01:14:00.772Z,16.77
2022-09-15T01:16:34.210Z,16.78
2022-09-15T01:19:22.026Z,16.85
2022-09-15T01:21:58.110Z,16.86
2022-09-15T01:25:03.359Z,16.91
2022-09-15T01:28:26.947Z,16.98
2022-09-15T01:31:02.038Z,17.05
2022-09-15T01:33:35.347Z,17.09
2022-09-15T01:36:10.158Z,17.17
2022-09-15T01:38:48.238Z,17.25
2022-09-15T01:41:19.097Z,17.25
2022-09-15T01:43:53.568Z,17.28
2022-09-15T01:46:26.583Z,17.33
2022-09-15T01:48:56.830Z,17.41
2022-09-15T01:51:26.740Z,17.46
2022-09-15T01:53:55.744Z,17.48
2022-09-15T01:56:23.439Z,17.55
2022-09-15T01:58:52.321Z,17.57
2022-09-15T02:01:28.129Z,17.58
2022-09-15T02:04:01.106Z,17.64
2022-09-15T02:06:35.968Z,17.70
2022-09-15T02:09:08.741Z,17.73
2022-09-15T02:11:40.851Z,17.75
2022-09-15T02:14:17.173Z,17.77
2022-09-15T02:16:52.108Z,17.76
2022-09-15T02:19:23.339Z,17.77
2022-09-15T02:21:57.969Z,17.78
2022-09-15T02:24:37.673Z,17.70
2022-09-15T02:27:09.305Z,17.62
2022-09-15T02:29:38.077Z,17.65
2022-09-15T02:32:09.568Z,17.61
2022-09-15T02:34:43.020Z,17.58
2022-09-15T02:37:12.404Z,17.57
2022-09-15T02:39:44.678Z,17.57
2022-09-15T02:42:13.128Z,17.55
2022-09-15T02:44:41.307Z,17.53
2022-09-15T02:47:10.359Z,17.47
2022-09-15T02:49:37.999Z,17.45
2022-09-15T02:52:06.238Z,17.52
2022-09-15T02:54:34.027Z,17.54
2022-09-15T02:57:01.704Z,17.53
2022-09-15T02:59:50.535Z,17.50
2022-09-15T03:02:20.530Z,17.44
2022-09-15T03:04:48.655Z,17.38
2022-09-15T03:07:16.693Z,17.35
2022-09-15T03:09:44.379Z,17.35
2022-09-15T03:12:12.039Z,17.35
2022-09-15T03:14:39.703Z,17.34
2022-09-15T03:17:07.398Z,17.29
2022-09-15T03:19:36.550Z,17.29
2022-09-15T03:22:04.243Z,17.31
2022-09-15T03:24:31.899Z,17.33
2022-09-15T03:26:59.559Z,17.34
2022-09-15T03:29:27.384Z,17.30
2022-09-15T03:31:55.453Z,17.31
2022-09-15T03:34:23.161Z,17.34
2022-09-15T03:36:52.178Z,17.38
2022-09-15T03:39:19.861Z,17.46
2022-09-15T03:41:47.491Z,17.46
2022-09-15T03:44:15.271Z,17.43
2022-09-15T03:46:42.981Z,17.42
2022-09-15T03:49:10.700Z,17.42
2022-09-15T03:51:38.416Z,17.47
2022-09-15T03:54:07.535Z,17.50
2022-09-15T03:56:35.560Z,17.50
2022-09-15T03:59:05.592Z,17.54
2022-09-15T04:01:34.405Z,17.59
2022-09-15T04:04:02.585Z,17.61
2022-09-15T04:06:30.286Z,17.68
2022-09-15T04:09:00.157Z,17.70
2022-09-15T04:11:29.457Z,17.72
2022-09-15T04:13:57.138Z,17.72
2022-09-15T04:16:27.613Z,17.72
2022-09-15T04:18:56.203Z,17.71
2022-09-15T04:21:26.054Z,17.68
2022-09-15T04:23:54.781Z,17.64
2022-09-15T04:26:25.488Z,17.64
2022-09-15T04:28:54.537Z,17.60
2022-09-15T04:31:22.293Z,17.57
2022-09-15T04:33:54.209Z,17.64
2022-09-15T04:36:24.571Z,17.65
2022-09-15T04:38:52.726Z,17.72
2022-09-15T04:41:21.253Z,17.76
2022-09-15T04:43:49.493Z,17.81
2022-09-15T04:46:19.575Z,17.82
2022-09-15T04:48:48.771Z,17.83
2022-09-15T04:51:18.948Z,17.82
2022-09-15T04:53:47.499Z,17.87
2022-09-15T04:56:17.146Z,17.86
2022-09-15T04:58:46.333Z,17.87
2022-09-15T05:01:15.956Z,17.87
2022-09-15T05:03:46.426Z,17.89
2022-09-15T05:06:16.507Z,17.88
2022-09-15T05:08:47.567Z,17.88
2022-09-15T05:11:15.434Z,17.90
2022-09-15T05:13:43.211Z,17.91
2022-09-15T05:16:13.000Z,17.94
2022-09-15T05:18:41.447Z,17.94
2022-09-15T05:21:11.931Z,17.90
2022-09-15T05:23:40.294Z,17.92
2022-09-15T05:26:10.558Z,17.92
2022-09-15T05:28:38.795Z,17.88
2022-09-15T05:31:10.571Z,17.90
2022-09-15T05:33:38.496Z,17.88
2022-09-15T05:36:07.239Z,17.82
2022-09-15T05:38:36.757Z,17.82
2022-09-15T05:41:05.594Z,17.82
2022-09-15T05:43:34.603Z,17.83
2022-09-15T05:46:02.976Z,17.82
2022-09-15T05:48:31.108Z,17.84
2022-09-15T05:50:59.656Z,17.85
2022-09-15T05:53:27.719Z,17.84
2022-09-15T05:55:57.829Z,17.87
2022-09-15T05:58:25.979Z,17.88
2022-09-15T06:00:54.331Z,17.91
2022-09-15T06:03:27.506Z,17.94
2022-09-15T06:06:00.016Z,17.89
2022-09-15T06:08:31.544Z,17.93
2022-09-15T06:11:04.701Z,17.94
2022-09-15T06:13:32.974Z,17.99
2022-09-15T06:16:08.674Z,18.02
2022-09-15T06:18:37.926Z,18.01
2022-09-15T06:21:07.607Z,18.03
2022-09-15T06:23:35.711Z,18.03
2022-09-15T06:26:09.713Z,18.04
2022-09-15T06:28:37.868Z,18.02
2022-09-15T06:31:06.387Z,17.94
2022-09-15T06:33:34.129Z,17.97
2022-09-15T06:36:03.577Z,17.96
2022-09-15T06:38:31.315Z,17.94
2022-09-15T06:41:00.135Z,17.95
2022-09-15T06:43:31.527Z,17.94
2022-09-15T06:46:04.342Z,17.94
2022-09-15T06:48:33.177Z,17.87
2022-09-15T06:51:01.896Z,17.73
2022-09-15T06:53:31.066Z,17.52
2022-09-15T06:56:03.235Z,17.15
2022-09-15T06:58:32.405Z,16.81
2022-09-15T07:01:04.106Z,16.50
2022-09-15T07:03:32.410Z,16.26
2022-09-15T07:06:00.227Z,16.02
2022-09-15T07:08:27.956Z,15.85
2022-09-15T07:10:55.850Z,15.79
2022-09-15T07:13:23.785Z,15.73
2022-09-15T07:15:53.947Z,15.76
2022-09-15T07:18:21.780Z,15.78
2022-09-15T07:20:50.104Z,15.85
2022-09-15T07:23:18.174Z,15.88
2022-09-15T07:25:46.312Z,15.95
2022-09-15T07:28:14.561Z,16.07
2022-09-15T07:30:43.506Z,16.20
2022-09-15T07:33:14.084Z,16.24
2022-09-15T07:35:42.932Z,16.35
2022-09-15T07:38:11.475Z,16.46
2022-09-15T07:40:39.577Z,16.65
2022-09-15T07:43:07.712Z,16.81
2022-09-15T07:45:36.384Z,16.90
2022-09-15T07:48:04.316Z,17.07
2022-09-15T07:50:33.431Z,17.20
2022-09-15T07:53:01.140Z,17.26
2022-09-15T07:55:30.395Z,17.48
2022-09-15T07:57:59.325Z,17.63
2022-09-15T08:00:27.994Z,17.77
2022-09-15T08:02:56.581Z,17.73
2022-09-15T08:05:27.133Z,17.81
2022-09-15T08:07:56.636Z,17.75
2022-09-15T08:10:25.873Z,17.67
2022-09-15T08:12:54.050Z,17.65
2022-09-15T08:15:21.943Z,17.66
2022-09-15T08:17:49.642Z,17.73
2022-09-15T08:20:17.697Z,17.81
2022-09-15T08:22:46.326Z,17.89
2022-09-15T08:25:15.749Z,17.99
2022-09-15T08:27:43.413Z,18.00
2022-09-15T08:30:12.198Z,18.07
2022-09-15T08:32:39.893Z,18.17
2022-09-15T08:35:08.695Z,18.27
2022-09-15T08:37:36.378Z,18.36
2022-09-15T08:40:04.822Z,18.58
2022-09-15T08:42:34.555Z,18.78
2022-09-15T08:45:08.170Z,18.97
2022-09-15T08:47:39.581Z,19.12
2022-09-15T08:50:16.697Z,19.27
2022-09-15T08:52:50.207Z,19.45
2022-09-15T08:55:23.654Z,19.72
2022-09-15T08:57:55.443Z,20.15
2022-09-15T09:00:23.163Z,20.50
2022-09-15T09:03:29.525Z,20.64
2022-09-15T09:06:01.429Z,20.72
2022-09-15T09:08:58.299Z,20.64
2022-09-15T09:11:36.186Z,20.83
2022-09-15T09:14:17.811Z,21.10
2022-09-15T09:16:59.133Z,21.30
2022-09-15T09:19:52.740Z,21.21
2022-09-15T09:22:26.851Z,21.24
2022-09-15T09:24:59.228Z,21.29
2022-09-15T09:27:30.418Z,21.18
2022-09-15T09:30:03.903Z,20.91
2022-09-15T09:32:41.291Z,20.92
2022-09-15T09:35:19.882Z,20.83
2022-09-15T09:37:47.663Z,21.03
2022-09-15T09:40:16.851Z,21.11
2022-09-15T09:42:45.672Z,21.17
2022-09-15T09:45:16.592Z,21.26
2022-09-15T09:47:44.592Z,21.30
2022-09-15T09:50:34.764Z,21.37
2022-09-15T09:53:24.558Z,21.36
2022-09-15T09:55:53.237Z,21.28
2022-09-15T09:58:23.300Z,21.16
2022-09-15T10:00:53.651Z,21.02
2022-09-15T10:03:23.372Z,20.89
2022-09-15T10:06:06.288Z,21.07
2022-09-15T10:08:34.597Z,21.45
2022-09-15T10:11:07.695Z,21.81
2022-09-15T10:13:37.070Z,22.20
2022-09-15T10:16:07.685Z,22.46
2022-09-15T10:18:37.898Z,23.25
2022-09-15T10:21:08.807Z,23.51
2022-09-15T10:23:37.225Z,23.80
2022-09-15T10:26:32.925Z,23.42
2022-09-15T10:29:17.451Z,23.53
2022-09-15T10:31:47.348Z,23.86
2022-09-15T10:34:37.231Z,23.59
2022-09-15T10:37:15.274Z,23.48
2022-09-15T10:39:53.983Z,22.99
2022-09-15T10:42:41.932Z,22.97
2022-09-15T10:45:19.582Z,22.83
2022-09-15T10:48:13.059Z,22.56
2022-09-15T10:50:51.735Z,22.28
2022-09-15T10:53:30.092Z,22.38
2022-09-15T10:56:04.712Z,22.06
2022-09-15T10:58:47.577Z,21.68
2022-09-15T11:01:33.214Z,21.54
2022-09-15T11:04:19.650Z,21.62
2022-09-15T11:06:54.605Z,21.92
2022-09-15T11:09:25.778Z,22.31
2022-09-15T11:12:12.019Z,22.60
2022-09-15T11:14:55.768Z,22.57
2022-09-15T11:17:43.101Z,22.95
2022-09-15T11:20:29.462Z,22.70
2022-09-15T11:23:04.330Z,23.17
2022-09-15T11:25:35.599Z,23.40
2022-09-15T11:28:11.054Z,24.02
2022-09-15T11:30:47.017Z,24.61
2022-09-15T11:33:22.118Z,24.74
2022-09-15T11:35:57.508Z,24.56
2022-09-15T11:38:36.993Z,24.66
2022-09-15T11:41:18.731Z,24.50
2022-09-15T11:43:56.515Z,23.80
2022-09-15T11:46:35.727Z,23.83
2022-09-15T11:49:10.156Z,23.95
2022-09-15T11:51:44.045Z,23.57
2022-09-15T11:54:16.948Z,23.29
2022-09-15T11:56:47.648Z,22.92
2022-09-15T11:59:25.865Z,22.49
2022-09-15T12:02:00.383Z,22.16
2022-09-15T12:04:32.432Z,22.03
2022-09-15T12:07:09.841Z,22.13
2022-09-15T12:09:40.475Z,21.88
2022-09-15T12:12:13.964Z,21.96
2022-09-15T12:14:45.074Z,22.08
2022-09-15T12:17:19.959Z,22.17
2022-09-15T12:20:00.081Z,22.12
2022-09-15T12:22:35.775Z,22.15
2022-09-15T12:25:10.309Z,22.00
2022-09-15T12:27:38.133Z,21.87
2022-09-15T12:30:06.791Z,21.50
2022-09-15T12:32:35.162Z,20.81
2022-09-15T12:35:13.382Z,20.67
2022-09-15T12:37:46.738Z,20.53
2022-09-15T12:40:35.049Z,20.83
2022-09-15T12:43:07.063Z,20.88
2022-09-15T12:45:36.914Z,21.14
2022-09-15T12:48:08.355Z,21.13
2022-09-15T12:50:39.314Z,21.31
2022-09-15T12:53:20.217Z,21.50
2022-09-15T12:55:51.108Z,21.66
2022-09-15T12:58:26.221Z,21.49
2022-09-15T13:01:31.437Z,21.36
2022-09-15T13:04:26.914Z,21.45
2022-09-15T13:07:23.673Z,21.34
2022-09-15T13:10:00.563Z,21.59
2022-09-15T13:12:34.937Z,21.71
2022-09-15T13:15:04.924Z,21.74
2022-09-15T13:17:34.576Z,21.91
2022-09-15T13:20:15.449Z,22.48
2022-09-15T13:22:48.418Z,22.87
2022-09-15T13:25:22.774Z,22.89
2022-09-15T13:27:54.688Z,22.64
2022-09-15T13:30:36.761Z,22.87
2022-09-15T13:33:19.752Z,22.93
2022-09-15T13:36:04.700Z,22.72
2022-09-15T13:39:06.036Z,22.55
2022-09-15T13:42:13.633Z,22.99
2022-09-15T13:45:01.137Z,22.75
2022-09-15T13:47:40.104Z,22.43
2022-09-15T13:50:15.892Z,22.67
2022-09-15T13:52:57.776Z,22.12
2022-09-15T13:55:28.035Z,21.63
2022-09-15T14:00:55.342Z,21.03
2022-09-15T14:03:28.130Z,20.87
2022-09-15T14:05:57.126Z,20.93
2022-09-15T14:08:32.253Z,21.00
2022-09-15T14:11:04.285Z,20.98
2022-09-15T14:13:34.740Z,20.99
2022-09-15T14:16:08.047Z,20.88
2022-09-15T14:18:43.944Z,20.73
2022-09-15T14:21:18.735Z,20.59
2022-09-15T14:23:47.964Z,20.64
2022-09-15T14:26:18.292Z,20.58
2022-09-15T14:28:52.802Z,20.48
2022-09-15T14:31:28.914Z,20.24
2022-09-15T14:33:56.984Z,19.66
2022-09-15T14:36:28.301Z,19.36
2022-09-15T14:39:08.687Z,19.24
2022-09-15T14:41:37.411Z,19.20
2022-09-15T14:47:12.811Z,19.17
2022-09-15T14:49:40.888Z,19.32
2022-09-15T14:52:24.091Z,19.43
2022-09-15T14:54:56.215Z,19.45
2022-09-15T14:57:31.101Z,19.35
2022-09-15T15:00:04.163Z,19.28
2022-09-15T15:02:47.308Z,18.98
2022-09-15T15:05:20.444Z,18.06
2022-09-15T15:07:50.012Z,16.92
2022-09-15T15:10:22.751Z,16.27
2022-09-15T15:12:53.367Z,15.92
2022-09-15T15:15:22.689Z,15.60
2022-09-15T15:17:54.511Z,15.40
2022-09-15T15:20:25.049Z,15.31
2022-09-15T15:23:13.758Z,15.27
2022-09-15T15:25:42.481Z,15.21
2022-09-15T15:28:30.628Z,15.17
2022-09-15T15:31:15.376Z,15.02
2022-09-15T15:33:53.259Z,15.01
2022-09-15T15:36:23.853Z,15.11
2022-09-15T15:38:54.761Z,15.08
2022-09-15T15:41:25.160Z,15.13
2022-09-15T15:44:03.322Z,15.17
2022-09-15T15:46:54.410Z,15.27
2022-09-15T15:49:27.333Z,15.39
2022-09-15T15:51:55.954Z,15.46
2022-09-15T15:54:23.995Z,15.51
2022-09-15T15:56:52.314Z,15.58
2022-09-15T15:59:20.350Z,15.53
2022-09-15T16:01:52.842Z,15.58
2022-09-15T16:04:20.835Z,15.65
2022-09-15T16:06:48.923Z,15.71
2022-09-15T16:09:18.679Z,15.72
2022-09-15T16:11:46.530Z,15.68
2022-09-15T16:14:14.629Z,15.76
2022-09-15T16:16:42.418Z,15.71
2022-09-15T16:19:12.051Z,15.79
2022-09-15T16:21:42.384Z,15.72
2022-09-15T16:24:14.789Z,15.60
2022-09-15T16:26:43.205Z,15.63
2022-09-15T16:29:11.115Z,15.56
2022-09-15T16:31:39.296Z,15.55
2022-09-15T16:34:07.067Z,15.56
2022-09-15T16:36:36.708Z,15.48
2022-09-15T16:39:05.001Z,15.44
2022-09-15T16:41:38.496Z,15.31
2022-09-15T16:44:14.942Z,15.15
2022-09-15T16:46:42.677Z,14.80
2022-09-15T16:49:10.409Z,14.50
2022-09-15T16:51:39.439Z,14.32
2022-09-15T16:54:15.298Z,14.05
2022-09-15T16:56:43.314Z,13.88
2022-09-15T16:59:11.144Z,13.82
2022-09-15T17:01:38.986Z,13.57
2022-09-15T17:04:12.568Z,13.43
2022-09-15T17:06:41.700Z,13.34
2022-09-15T17:09:09.954Z,13.31
2022-09-15T17:11:38.083Z,13.34
2022-09-15T17:14:06.236Z,13.36
2022-09-15T17:16:34.205Z,13.31
2022-09-15T17:19:02.073Z,13.39
2022-09-15T17:21:29.784Z,13.43
2022-09-15T17:23:58.807Z,13.46
2022-09-15T17:26:30.449Z,13.48
2022-09-15T17:28:58.890Z,13.42
2022-09-15T17:31:27.837Z,13.40
2022-09-15T17:33:55.561Z,13.40
2022-09-15T17:36:23.300Z,13.41
2022-09-15T17:38:50.964Z,13.46
2022-09-15T17:41:22.371Z,13.44
2022-09-15T17:43:50.798Z,13.39
2022-09-15T17:46:18.597Z,13.33
2022-09-15T17:48:46.265Z,13.35
2022-09-15T17:51:17.069Z,13.39
2022-09-15T17:53:45.874Z,13.35
2022-09-15T17:56:13.664Z,13.44
2022-09-15T17:58:43.110Z,13.40
2022-09-15T18:01:13.533Z,13.39
2022-09-15T18:03:44.043Z,13.39
2022-09-15T18:06:11.899Z,13.58
2022-09-15T18:08:39.695Z,13.64
2022-09-15T18:11:08.445Z,13.66
2022-09-15T18:13:37.892Z,13.66
2022-09-15T18:16:11.962Z,13.64
2022-09-15T18:18:40.607Z,13.56
2022-09-15T18:21:11.751Z,13.58
2022-09-15T18:23:42.302Z,13.52
2022-09-15T18:26:10.042Z,13.58
2022-09-15T18:28:37.764Z,13.59
2022-09-15T18:31:07.599Z,13.61
2022-09-15T18:33:35.392Z,13.57
2022-09-15T18:36:06.907Z,13.49
2022-09-15T18:38:34.875Z,13.54
2022-09-15T18:41:04.465Z,13.47
2022-09-15T18:43:32.191Z,13.44
2022-09-15T18:46:00.706Z,13.45
2022-09-15T18:48:30.365Z,13.34
2022-09-15T18:50:58.222Z,13.38
2022-09-15T18:53:26.220Z,13.38
2022-09-15T18:55:53.940Z,13.36
2022-09-15T18:58:22.456Z,13.39
2022-09-15T19:00:50.165Z,13.43
2022-09-15T19:03:18.187Z,13.37
2022-09-15T19:05:47.230Z,13.38
2022-09-15T19:08:15.542Z,13.44
2022-09-15T19:10:44.239Z,13.37
2022-09-15T19:13:14.085Z,13.35
2022-09-15T19:15:43.730Z,13.40
2022-09-15T19:18:11.638Z,13.35
2022-09-15T19:20:40.197Z,13.39
2022-09-15T19:23:10.522Z,13.40
2022-09-15T19:25:38.511Z,13.35
2022-09-15T19:28:06.221Z,13.34
2022-09-15T19:30:34.234Z,13.38
2022-09-15T19:33:02.893Z,13.34
2022-09-15T19:35:30.813Z,13.44
2022-09-15T19:37:58.553Z,13.53
2022-09-15T19:40:27.748Z,13.57
2022-09-15T19:42:55.490Z,13.62
2022-09-15T19:45:23.205Z,13.59
2022-09-15T19:47:50.944Z,13.64
2022-09-15T19:50:19.008Z,13.53
2022-09-15T19:52:46.745Z,13.56
2022-09-15T19:55:14.629Z,13.62
2022-09-15T19:57:43.876Z,13.61
2022-09-15T20:00:14.345Z,13.56
2022-09-15T20:02:42.238Z,13.61
2022-09-15T20:05:10.438Z,13.63
2022-09-15T20:07:38.155Z,13.60
2022-09-15T20:10:06.786Z,13.57
2022-09-15T20:12:34.480Z,13.58
2022-09-15T20:15:03.634Z,13.52
2022-09-15T20:17:31.378Z,13.58
2022-09-15T20:19:59.228Z,13.61
2022-09-15T20:22:27.420Z,13.55
2022-09-15T20:24:56.097Z,13.44
2022-09-15T20:27:23.873Z,13.52
2022-09-15T20:29:51.571Z,13.49
2022-09-15T20:32:24.957Z,13.48
2022-09-15T20:34:56.156Z,13.46
2022-09-15T20:37:23.858Z,13.48
2022-09-15T20:39:51.915Z,13.47
2022-09-15T20:42:19.736Z,13.43
2022-09-15T20:44:47.508Z,13.45
2022-09-15T20:47:15.912Z,13.40
2022-09-15T20:49:44.990Z,13.37
2022-09-15T20:52:12.676Z,13.38
2022-09-15T20:54:40.590Z,13.44
2022-09-15T20:57:09.393Z,13.44
2022-09-15T20:59:37.841Z,13.48
2022-09-15T21:02:10.395Z,13.42
2022-09-15T21:04:38.178Z,13.39
2022-09-15T21:07:07.417Z,13.31
2022-09-15T21:09:35.110Z,13.22
2022-09-15T21:12:06.093Z,13.20
2022-09-15T21:14:33.736Z,13.19
2022-09-15T21:17:01.433Z,13.20
2022-09-15T21:19:29.136Z,13.13
2022-09-15T21:21:58.224Z,13.08
2022-09-15T21:24:27.275Z,13.14
2022-09-15T21:27:12.336Z,13.12
2022-09-15T21:29:40.023Z,13.13
2022-09-15T21:32:07.832Z,13.22
2022-09-15T21:34:35.576Z,13.19
2022-09-15T21:37:03.309Z,13.20
2022-09-15T21:39:32.369Z,13.21
2022-09-15T21:42:00.108Z,13.15
2022-09-15T21:44:27.833Z,13.13
2022-09-15T21:46:55.522Z,13.04
2022-09-15T21:49:23.268Z,13.07
2022-09-15T21:51:50.957Z,13.06
2022-09-15T21:54:18.762Z,13.06
2022-09-15T21:56:47.804Z,13.07
2022-09-15T21:59:16.751Z,13.04
2022-09-15T22:01:44.505Z,12.97
2022-09-15T22:04:12.272Z,12.90
2022-09-15T22:06:41.530Z,12.92
2022-09-15T22:09:11.559Z,12.88
2022-09-15T22:11:39.291Z,12.92
2022-09-15T22:14:09.434Z,12.88
2022-09-15T22:16:38.696Z,12.93
2022-09-15T22:19:08.020Z,12.92
2022-09-15T22:21:36.908Z,12.97
2022-09-15T22:24:07.007Z,12.91
2022-09-15T22:26:36.896Z,12.88
2022-09-15T22:29:05.303Z,12.92
2022-09-15T22:31:34.791Z,12.85
2022-09-15T22:34:02.716Z,12.95
2022-09-15T22:39:17.483Z,12.94
2022-09-15T22:41:45.244Z,12.96
2022-09-15T22:44:19.899Z,12.98
2022-09-15T22:46:51.306Z,13.03
2022-09-15T22:49:19.043Z,13.02
2022-09-15T22:51:46.794Z,12.98
2022-09-15T22:54:14.677Z,12.96
2022-09-15T22:56:42.386Z,13.01
2022-09-15T22:59:10.159Z,12.98
2022-09-15T23:06:02.438Z,12.98
2022-09-15T23:08:31.096Z,13.06
2022-09-15T23:11:03.073Z,13.06
2022-09-15T23:13:30.838Z,13.05
2022-09-15T23:15:58.840Z,13.05
2022-09-15T23:18:27.306Z,13.03
2022-09-15T23:21:21.233Z,13.00
2022-09-15T23:23:49.560Z,13.05
2022-09-15T23:26:19.477Z,13.05
2022-09-15T23:28:49.156Z,13.04
2022-09-15T23:31:17.416Z,13.01
2022-09-15T23:33:45.513Z,13.10
2022-09-15T23:36:15.924Z,13.11
2022-09-15T23:38:46.417Z,13.08
2022-09-15T23:41:15.828Z,13.09
2022-09-15T23:43:43.636Z,13.08
2022-09-15T23:46:11.634Z,13.12
2022-09-15T23:48:39.462Z,13.16
2022-09-15T23:51:07.688Z,13.15
2022-09-15T23:53:36.354Z,13.16
2022-09-15T23:56:05.965Z,13.16
2022-09-15T23:58:33.761Z,13.13
